createdAt,value
2019-03-13T00:01:30.071Z,22.40
2019-03-13T00:04:00.753Z,22.40
2019-03-13T00:06:31.459Z,22.40
2019-03-13T00:09:02.071Z,22.30
2019-03-13T00:11:32.493Z,22.40
2019-03-13T00:14:02.948Z,22.40
2019-03-13T00:16:34.504Z,22.30
2019-03-13T00:19:04.925Z,22.30
2019-03-13T00:21:35.647Z,22.30
2019-03-13T00:24:06.499Z,22.30
2019-03-13T00:26:40.458Z,22.40
2019-03-13T00:29:11.152Z,22.30
2019-03-13T00:31:41.979Z,22.30
2019-03-13T00:34:12.443Z,22.40
2019-03-13T00:36:43.161Z,22.40
2019-03-13T00:39:13.751Z,22.40
2019-03-13T00:41:44.345Z,22.30
2019-03-13T00:44:14.953Z,22.40
2019-03-13T00:46:45.719Z,22.40
2019-03-13T00:49:16.302Z,22.40
2019-03-13T00:51:46.892Z,22.40
2019-03-13T00:54:17.575Z,22.40
2019-03-13T00:56:47.979Z,22.40
2019-03-13T00:59:18.559Z,22.40
2019-03-13T01:02:11.025Z,22.40
2019-03-13T01:04:49.516Z,22.40
2019-03-13T01:07:20.152Z,22.40
2019-03-13T01:09:50.701Z,22.40
2019-03-13T01:12:21.298Z,22.40
2019-03-13T01:14:51.904Z,22.40
2019-03-13T01:17:22.511Z,22.30
2019-03-13T01:19:53.220Z,22.30
2019-03-13T01:22:23.785Z,22.30
2019-03-13T01:24:54.472Z,22.30
2019-03-13T01:27:25.111Z,22.30
2019-03-13T01:29:55.931Z,22.30
2019-03-13T01:32:48.936Z,22.30
2019-03-13T01:35:29.064Z,22.30
2019-03-13T01:37:59.868Z,22.20
2019-03-13T01:40:30.649Z,22.30
2019-03-13T01:43:01.190Z,22.30
2019-03-13T01:45:31.659Z,22.30
2019-03-13T01:48:02.189Z,22.30
2019-03-13T01:50:32.922Z,22.30
2019-03-13T01:53:03.806Z,22.30
2019-03-13T01:55:34.384Z,22.30
2019-03-13T01:58:04.916Z,22.30
2019-03-13T02:00:35.747Z,22.30
2019-03-13T02:03:06.342Z,22.30
2019-03-13T02:05:36.917Z,22.30
2019-03-13T02:08:07.399Z,22.30
2019-03-13T02:10:37.951Z,22.30
2019-03-13T02:13:08.512Z,22.30
2019-03-13T02:15:39.063Z,22.30
2019-03-13T02:18:09.671Z,22.30
2019-03-13T02:20:40.188Z,22.30
2019-03-13T02:23:10.617Z,22.30
2019-03-13T02:25:41.467Z,22.30
2019-03-13T02:28:11.992Z,22.20
2019-03-13T02:30:42.738Z,22.30
2019-03-13T02:33:13.451Z,22.30
2019-03-13T02:35:44.186Z,22.30
2019-03-13T02:38:14.586Z,22.30
2019-03-13T02:40:45.098Z,22.30
2019-03-13T02:43:15.694Z,22.30
2019-03-13T02:45:46.338Z,22.30
2019-03-13T02:48:16.930Z,22.30
2019-03-13T02:50:47.494Z,22.30
2019-03-13T02:53:18.100Z,22.30
2019-03-13T02:55:48.646Z,22.30
2019-03-13T02:58:19.290Z,22.30
2019-03-13T03:01:17.983Z,22.30
2019-03-13T03:03:51.903Z,22.30
2019-03-13T03:06:22.309Z,22.30
2019-03-13T03:08:53.057Z,22.30
2019-03-13T03:11:24.309Z,22.30
2019-03-13T03:13:55.148Z,22.30
2019-03-13T03:16:26.102Z,22.30
2019-03-13T03:18:57.108Z,22.30
2019-03-13T03:21:27.866Z,22.30
2019-03-13T03:23:58.605Z,22.30
2019-03-13T03:26:29.427Z,22.30
2019-03-13T03:29:00.079Z,22.30
2019-03-13T03:31:30.596Z,22.30
2019-03-13T03:34:05.053Z,22.30
2019-03-13T03:36:35.815Z,22.30
2019-03-13T03:39:08.011Z,22.30
2019-03-13T03:41:38.518Z,22.30
2019-03-13T03:44:09.003Z,22.30
2019-03-13T03:46:39.778Z,22.30
2019-03-13T03:49:10.427Z,22.30
2019-03-13T03:51:41.067Z,22.30
2019-03-13T03:54:11.442Z,22.20
2019-03-13T03:56:42.326Z,22.20
2019-03-13T03:59:12.736Z,22.20
2019-03-13T04:01:43.392Z,22.20
2019-03-13T04:04:14.024Z,22.20
2019-03-13T04:06:44.733Z,22.20
2019-03-13T04:09:15.353Z,22.20
2019-03-13T04:11:46.121Z,22.20
2019-03-13T04:14:16.517Z,22.20
2019-03-13T04:16:47.145Z,22.20
2019-03-13T04:19:17.677Z,22.20
2019-03-13T04:21:48.492Z,22.20
2019-03-13T04:24:19.454Z,22.20
2019-03-13T04:26:50.230Z,22.20
2019-03-13T04:29:21.713Z,22.20
2019-03-13T04:31:52.412Z,22.20
2019-03-13T04:34:25.027Z,22.20
2019-03-13T04:36:56.031Z,22.20
2019-03-13T04:39:26.790Z,22.20
2019-03-13T04:41:57.392Z,22.20
2019-03-13T04:44:28.020Z,22.20
2019-03-13T04:46:58.600Z,22.20
2019-03-13T04:49:29.423Z,22.20
2019-03-13T04:51:59.985Z,22.20
2019-03-13T04:54:30.584Z,22.20
2019-03-13T04:57:01.359Z,22.20
2019-03-13T04:59:32.075Z,22.20
2019-03-13T05:02:02.724Z,22.20
2019-03-13T05:04:33.260Z,22.20
2019-03-13T05:07:04.035Z,22.20
2019-03-13T05:09:40.838Z,22.20
2019-03-13T05:12:11.623Z,22.20
2019-03-13T05:14:42.160Z,22.20
2019-03-13T05:17:12.870Z,22.20
2019-03-13T05:19:43.437Z,22.20
2019-03-13T05:22:14.180Z,22.20
2019-03-13T05:24:44.792Z,22.20
2019-03-13T05:27:15.625Z,22.20
2019-03-13T05:29:46.271Z,22.20
2019-03-13T05:32:16.918Z,22.10
2019-03-13T05:34:47.339Z,22.10
2019-03-13T05:37:18.003Z,22.10
2019-03-13T05:39:48.556Z,22.10
2019-03-13T05:42:19.330Z,22.10
2019-03-13T05:44:50.127Z,22.10
2019-03-13T05:47:20.804Z,22.10
2019-03-13T05:49:51.377Z,22.10
2019-03-13T05:52:22.264Z,22.10
2019-03-13T05:54:52.878Z,22.10
2019-03-13T05:57:23.567Z,22.10
2019-03-13T05:59:54.163Z,22.10
2019-03-13T06:02:24.705Z,22.10
2019-03-13T06:04:55.595Z,22.10
2019-03-13T06:07:26.202Z,22.10
2019-03-13T06:09:57.017Z,22.10
2019-03-13T06:12:27.734Z,22.10
2019-03-13T06:14:58.635Z,22.20
2019-03-13T06:17:29.383Z,22.20
2019-03-13T06:19:59.926Z,22.30
2019-03-13T06:22:30.995Z,22.40
2019-03-13T06:25:01.593Z,22.50
2019-03-13T06:27:32.568Z,22.70
2019-03-13T06:30:03.325Z,22.80
2019-03-13T06:32:33.999Z,23.00
2019-03-13T06:35:04.827Z,23.10
2019-03-13T06:37:35.577Z,23.20
2019-03-13T06:40:07.282Z,23.20
2019-03-13T06:42:37.876Z,23.20
2019-03-13T06:45:10.841Z,23.10
2019-03-13T06:47:41.468Z,23.10
2019-03-13T06:50:15.901Z,23.00
2019-03-13T06:52:46.558Z,22.90
2019-03-13T06:55:16.937Z,22.90
2019-03-13T06:57:47.609Z,22.80
2019-03-13T07:00:37.992Z,22.80
2019-03-13T07:03:28.359Z,22.80
2019-03-13T07:06:17.814Z,22.80
2019-03-13T07:09:10.320Z,22.70
2019-03-13T07:11:58.544Z,22.70
2019-03-13T07:14:37.682Z,22.70
2019-03-13T07:17:17.871Z,22.70
2019-03-13T07:20:19.673Z,22.70
2019-03-13T07:22:58.328Z,22.60
2019-03-13T07:25:51.049Z,22.60
2019-03-13T07:28:44.415Z,22.60
2019-03-13T07:31:33.832Z,22.60
2019-03-13T07:34:21.846Z,22.60
2019-03-13T07:37:20.682Z,22.60
2019-03-13T07:40:01.017Z,22.60
2019-03-13T07:42:49.497Z,22.60
2019-03-13T07:45:42.201Z,22.60
2019-03-13T07:48:22.197Z,22.50
2019-03-13T07:51:14.449Z,22.40
2019-03-13T07:54:06.028Z,22.30
2019-03-13T07:56:58.763Z,22.30
2019-03-13T08:00:00.364Z,22.30
2019-03-13T08:02:50.134Z,22.30
2019-03-13T08:05:39.954Z,22.30
2019-03-13T08:08:32.750Z,22.30
2019-03-13T08:11:25.035Z,22.30
2019-03-13T08:14:12.221Z,22.30
2019-03-13T08:17:16.833Z,22.30
2019-03-13T08:20:21.719Z,22.20
2019-03-13T08:23:11.057Z,22.20
2019-03-13T08:26:04.194Z,22.30
2019-03-13T08:28:46.617Z,22.40
2019-03-13T08:31:38.890Z,22.40
2019-03-13T08:34:27.618Z,22.40
2019-03-13T08:37:24.165Z,22.40
2019-03-13T08:40:19.627Z,22.50
2019-03-13T08:43:07.675Z,22.50
2019-03-13T08:46:00.246Z,22.50
2019-03-13T08:48:38.152Z,22.60
2019-03-13T08:51:26.055Z,22.60
2019-03-13T08:54:14.990Z,22.70
2019-03-13T08:57:01.264Z,22.70
2019-03-13T08:59:54.816Z,22.70
2019-03-13T09:02:39.167Z,22.70
2019-03-13T09:05:34.659Z,22.60
2019-03-13T09:08:24.590Z,22.60
2019-03-13T09:11:13.329Z,22.60
2019-03-13T09:13:54.837Z,22.60
2019-03-13T09:16:34.312Z,22.50
2019-03-13T09:19:26.791Z,22.50
2019-03-13T09:22:19.267Z,22.50
2019-03-13T09:25:11.211Z,22.50
2019-03-13T09:28:00.842Z,22.50
2019-03-13T09:30:41.817Z,22.40
2019-03-13T09:33:26.112Z,22.40
2019-03-13T09:36:15.654Z,22.40
2019-03-13T09:38:51.157Z,22.30
2019-03-13T09:41:30.325Z,22.30
2019-03-13T09:44:26.468Z,22.30
2019-03-13T09:47:28.136Z,22.30
2019-03-13T09:50:15.695Z,22.20
2019-03-13T09:53:03.885Z,22.20
2019-03-13T09:55:56.492Z,22.20
2019-03-13T09:58:48.752Z,22.10
2019-03-13T10:01:38.463Z,22.10
2019-03-13T10:04:36.936Z,22.10
2019-03-13T10:07:25.298Z,22.10
2019-03-13T10:10:20.935Z,22.10
2019-03-13T10:13:15.438Z,22.10
2019-03-13T10:16:14.715Z,22.10
2019-03-13T10:19:16.162Z,22.20
2019-03-13T10:22:24.355Z,22.20
2019-03-13T10:25:23.355Z,22.20
2019-03-13T10:28:02.762Z,22.30
2019-03-13T10:30:50.891Z,22.30
2019-03-13T10:33:58.717Z,22.30
2019-03-13T10:36:34.848Z,22.30
2019-03-13T10:39:28.821Z,22.40
2019-03-13T10:42:21.980Z,22.40
2019-03-13T10:45:04.125Z,22.40
2019-03-13T10:47:53.623Z,22.40
2019-03-13T10:50:42.256Z,22.40
2019-03-13T10:53:30.288Z,22.40
2019-03-13T10:56:10.303Z,22.40
2019-03-13T10:58:58.620Z,22.40
2019-03-13T11:01:38.370Z,22.40
2019-03-13T11:04:18.641Z,22.40
2019-03-13T11:07:03.527Z,22.40
2019-03-13T11:09:41.863Z,22.40
2019-03-13T11:12:31.306Z,22.40
2019-03-13T11:15:26.964Z,22.40
2019-03-13T11:18:12.491Z,22.40
2019-03-13T11:21:00.676Z,22.40
2019-03-13T11:23:48.836Z,22.40
2019-03-13T11:26:32.231Z,22.30
2019-03-13T11:29:15.318Z,22.30
2019-03-13T11:32:17.091Z,22.30
2019-03-13T11:35:12.586Z,22.30
2019-03-13T11:37:54.343Z,22.30
2019-03-13T11:40:41.498Z,22.30
2019-03-13T11:43:43.396Z,22.30
2019-03-13T11:46:35.758Z,22.30
2019-03-13T11:49:25.093Z,22.30
2019-03-13T11:52:29.076Z,22.30
2019-03-13T11:55:11.377Z,22.30
2019-03-13T11:57:59.629Z,22.30
2019-03-13T12:00:47.933Z,22.30
2019-03-13T12:03:49.559Z,22.20
2019-03-13T12:06:41.967Z,22.20
2019-03-13T12:09:49.449Z,22.20
2019-03-13T12:12:38.828Z,22.20
2019-03-13T12:15:36.310Z,22.20
2019-03-13T12:18:29.080Z,22.20
2019-03-13T12:21:21.755Z,22.10
2019-03-13T12:24:11.305Z,22.10
2019-03-13T12:26:54.807Z,22.10
2019-03-13T12:29:48.641Z,22.10
2019-03-13T12:32:32.159Z,22.10
2019-03-13T12:35:13.639Z,22.10
2019-03-13T12:38:06.148Z,22.10
2019-03-13T12:40:56.073Z,22.10
2019-03-13T12:43:51.703Z,22.10
2019-03-13T12:46:30.826Z,22.10
2019-03-13T12:49:18.048Z,22.10
2019-03-13T12:52:13.357Z,22.10
2019-03-13T12:55:09.013Z,22.10
2019-03-13T12:57:57.321Z,22.10
2019-03-13T13:00:50.705Z,22.20
2019-03-13T13:03:39.000Z,22.20
2019-03-13T13:06:34.622Z,22.20
2019-03-13T13:09:31.387Z,22.20
2019-03-13T13:12:17.312Z,22.20
2019-03-13T13:15:09.694Z,22.30
2019-03-13T13:17:57.770Z,22.30
2019-03-13T13:20:28.668Z,22.40
2019-03-13T13:23:02.608Z,22.40
2019-03-13T13:25:33.480Z,22.40
2019-03-13T13:28:04.300Z,22.40
2019-03-13T13:30:34.811Z,22.40
2019-03-13T13:33:05.814Z,22.40
2019-03-13T13:35:36.470Z,22.40
2019-03-13T13:38:09.985Z,22.40
2019-03-13T13:40:39.766Z,22.40
2019-03-13T13:43:10.748Z,22.40
2019-03-13T13:46:06.432Z,22.40
2019-03-13T13:48:37.456Z,22.40
2019-03-13T13:51:08.425Z,22.40
2019-03-13T13:53:38.971Z,22.30
2019-03-13T13:56:09.771Z,22.30
2019-03-13T13:58:40.755Z,22.30
2019-03-13T14:01:11.342Z,22.30
2019-03-13T14:03:42.218Z,22.30
2019-03-13T14:06:12.756Z,22.30
2019-03-13T14:08:43.395Z,22.20
2019-03-13T14:11:13.853Z,22.20
2019-03-13T14:13:44.860Z,22.20
2019-03-13T14:16:15.561Z,22.20
2019-03-13T14:18:46.572Z,22.20
2019-03-13T14:21:17.209Z,22.20
2019-03-13T14:23:47.831Z,22.20
2019-03-13T14:26:18.512Z,22.20
2019-03-13T14:28:51.661Z,22.20
2019-03-13T14:31:22.460Z,22.20
2019-03-13T14:33:53.439Z,22.20
2019-03-13T14:36:24.102Z,22.20
2019-03-13T14:38:54.762Z,22.10
2019-03-13T14:41:26.733Z,22.10
2019-03-13T14:43:57.844Z,22.10
2019-03-13T14:46:28.604Z,22.10
2019-03-13T14:48:59.203Z,22.10
2019-03-13T14:51:29.988Z,22.10
2019-03-13T14:54:00.844Z,22.10
2019-03-13T14:56:31.783Z,22.10
2019-03-13T14:59:02.461Z,22.10
2019-03-13T15:01:33.220Z,22.10
2019-03-13T15:04:03.956Z,22.10
2019-03-13T15:06:34.856Z,22.00
2019-03-13T15:09:05.842Z,22.10
2019-03-13T15:11:36.436Z,22.10
2019-03-13T15:14:09.956Z,22.10
2019-03-13T15:16:40.354Z,22.10
2019-03-13T15:19:11.262Z,22.10
2019-03-13T15:21:41.714Z,22.20
2019-03-13T15:24:12.503Z,22.20
2019-03-13T15:26:43.108Z,22.20
2019-03-13T15:29:14.067Z,22.20
2019-03-13T15:31:44.571Z,22.30
2019-03-13T15:34:15.334Z,22.30
2019-03-13T15:36:45.688Z,22.30
2019-03-13T15:39:16.291Z,22.30
2019-03-13T15:41:46.896Z,22.30
2019-03-13T15:44:17.416Z,22.30
2019-03-13T15:46:47.930Z,22.30
2019-03-13T15:49:18.437Z,22.30
2019-03-13T15:51:48.926Z,22.30
2019-03-13T15:54:19.577Z,22.30
2019-03-13T15:56:50.188Z,22.30
2019-03-13T15:59:20.832Z,22.30
2019-03-13T16:01:51.547Z,22.20
2019-03-13T16:04:22.114Z,22.20
2019-03-13T16:06:52.965Z,22.20
2019-03-13T16:09:23.537Z,22.30
2019-03-13T16:11:54.522Z,22.30
2019-03-13T16:14:25.248Z,22.30
2019-03-13T16:16:55.839Z,22.30
2019-03-13T16:19:26.871Z,22.30
2019-03-13T16:21:57.796Z,22.40
2019-03-13T16:24:28.747Z,22.40
2019-03-13T16:26:59.952Z,22.40
2019-03-13T16:29:31.023Z,22.40
2019-03-13T16:32:01.731Z,22.40
2019-03-13T16:34:32.410Z,22.40
2019-03-13T16:37:03.191Z,22.40
2019-03-13T16:39:33.687Z,22.40
2019-03-13T16:42:04.347Z,22.40
2019-03-13T16:44:35.499Z,22.40
2019-03-13T16:47:06.262Z,22.40
2019-03-13T16:49:39.211Z,22.40
2019-03-13T16:52:09.593Z,22.40
2019-03-13T16:54:40.275Z,22.40
2019-03-13T16:57:10.916Z,22.40
2019-03-13T16:59:41.528Z,22.40
2019-03-13T17:02:12.374Z,22.30
2019-03-13T17:04:43.207Z,22.30
2019-03-13T17:07:13.953Z,22.20
2019-03-13T17:09:44.862Z,22.20
2019-03-13T17:12:15.334Z,22.20
2019-03-13T17:14:46.273Z,22.20
2019-03-13T17:17:17.315Z,22.10
2019-03-13T17:19:47.938Z,22.10
2019-03-13T17:22:18.788Z,22.10
2019-03-13T17:24:49.679Z,22.10
2019-03-13T17:27:20.446Z,22.10
2019-03-13T17:29:51.071Z,22.10
2019-03-13T17:32:22.615Z,22.20
2019-03-13T17:34:53.827Z,22.20
2019-03-13T17:37:25.296Z,22.30
2019-03-13T17:39:56.177Z,22.50
2019-03-13T17:42:26.871Z,22.70
2019-03-13T17:44:57.775Z,22.90
2019-03-13T17:47:28.342Z,22.90
2019-03-13T17:49:59.212Z,23.00
2019-03-13T17:52:29.930Z,23.20
2019-03-13T17:55:00.572Z,23.30
2019-03-13T17:57:31.272Z,23.40
2019-03-13T18:00:02.014Z,23.40
2019-03-13T18:02:32.874Z,23.40
2019-03-13T18:05:03.699Z,23.40
2019-03-13T18:07:34.643Z,23.30
2019-03-13T18:10:05.903Z,23.30
2019-03-13T18:12:36.722Z,23.40
2019-03-13T18:15:07.593Z,23.40
2019-03-13T18:17:38.315Z,23.50
2019-03-13T18:20:12.087Z,23.60
2019-03-13T18:22:42.808Z,23.60
2019-03-13T18:25:13.563Z,23.70
2019-03-13T18:27:44.323Z,23.80
2019-03-13T18:30:18.429Z,23.70
2019-03-13T18:32:49.062Z,23.70
2019-03-13T18:35:20.210Z,23.70
2019-03-13T18:37:51.149Z,23.70
2019-03-13T18:40:21.840Z,23.60
2019-03-13T18:42:52.413Z,23.60
2019-03-13T18:45:25.066Z,23.50
2019-03-13T18:47:55.854Z,23.50
2019-03-13T18:50:26.774Z,23.50
2019-03-13T18:52:57.834Z,23.50
2019-03-13T18:55:28.522Z,23.40
2019-03-13T18:57:59.764Z,23.30
2019-03-13T19:00:31.753Z,23.30
2019-03-13T19:03:02.479Z,23.30
2019-03-13T19:05:33.457Z,23.30
2019-03-13T19:08:04.340Z,23.20
2019-03-13T19:10:35.153Z,23.20
2019-03-13T19:13:06.114Z,23.20
2019-03-13T19:15:39.946Z,23.20
2019-03-13T19:18:09.824Z,23.20
2019-03-13T19:20:41.408Z,23.20
2019-03-13T19:23:14.435Z,23.20
2019-03-13T19:25:45.576Z,23.20
2019-03-13T19:28:16.720Z,23.10
2019-03-13T19:30:47.340Z,23.10
2019-03-13T19:33:18.133Z,23.00
2019-03-13T19:35:49.047Z,23.00
2019-03-13T19:38:19.937Z,23.00
2019-03-13T19:40:50.775Z,23.00
2019-03-13T19:43:21.774Z,23.00
2019-03-13T19:45:52.424Z,23.00
2019-03-13T19:48:23.143Z,22.90
2019-03-13T19:50:56.473Z,22.90
2019-03-13T19:53:26.600Z,22.90
2019-03-13T19:55:57.135Z,23.00
2019-03-13T19:58:28.084Z,23.00
2019-03-13T20:00:58.807Z,23.10
2019-03-13T20:03:29.619Z,23.20
2019-03-13T20:06:00.524Z,23.30
2019-03-13T20:08:31.396Z,23.30
2019-03-13T20:11:02.348Z,23.30
2019-03-13T20:13:33.116Z,23.30
2019-03-13T20:16:03.896Z,23.30
2019-03-13T20:18:34.852Z,23.30
2019-03-13T20:21:05.979Z,23.30
2019-03-13T20:23:38.193Z,23.30
2019-03-13T20:26:09.313Z,23.20
2019-03-13T20:28:40.144Z,23.20
2019-03-13T20:31:11.149Z,23.00
2019-03-13T20:33:41.961Z,23.00
2019-03-13T20:36:12.513Z,23.10
2019-03-13T20:38:47.050Z,23.10
2019-03-13T20:41:16.916Z,23.00
2019-03-13T20:43:48.274Z,23.00
2019-03-13T20:46:19.279Z,22.90
2019-03-13T20:48:50.823Z,23.00
2019-03-13T20:51:21.993Z,23.00
2019-03-13T20:53:53.870Z,23.00
2019-03-13T20:56:25.049Z,23.00
2019-03-13T20:58:56.060Z,23.00
2019-03-13T21:01:27.363Z,23.00
2019-03-13T21:03:59.221Z,22.90
2019-03-13T21:06:30.806Z,22.90
2019-03-13T21:09:02.265Z,22.90
2019-03-13T21:11:34.133Z,22.90
2019-03-13T21:14:06.138Z,22.90
2019-03-13T21:16:37.802Z,22.90
2019-03-13T21:19:10.494Z,22.90
2019-03-13T21:21:41.183Z,22.90
2019-03-13T21:24:12.080Z,22.80
2019-03-13T21:26:42.837Z,22.80
2019-03-13T21:29:13.462Z,22.80
2019-03-13T21:31:44.282Z,22.80
2019-03-13T21:34:15.117Z,22.80
2019-03-13T21:36:45.849Z,22.80
2019-03-13T21:39:16.399Z,22.90
2019-03-13T21:41:50.071Z,22.90
2019-03-13T21:44:21.218Z,22.90
2019-03-13T21:46:52.408Z,22.90
2019-03-13T21:49:23.074Z,22.90
2019-03-13T21:51:54.032Z,22.90
2019-03-13T21:54:24.797Z,22.90
2019-03-13T21:56:55.537Z,22.90
2019-03-13T21:59:26.316Z,22.90
2019-03-13T22:01:56.875Z,22.90
2019-03-13T22:04:27.861Z,23.00
2019-03-13T22:06:58.656Z,22.90
2019-03-13T22:09:29.340Z,22.90
2019-03-13T22:12:00.031Z,22.90
2019-03-13T22:14:30.878Z,22.90
2019-03-13T22:17:01.387Z,22.90
2019-03-13T22:19:32.126Z,22.90
2019-03-13T22:22:03.060Z,22.90
2019-03-13T22:24:33.855Z,22.90
2019-03-13T22:27:04.538Z,22.90
2019-03-13T22:29:35.559Z,22.90
2019-03-13T22:32:06.535Z,22.90
2019-03-13T22:34:37.322Z,22.90
2019-03-13T22:37:08.230Z,22.90
2019-03-13T22:39:39.042Z,22.90
2019-03-13T22:42:09.798Z,22.90
2019-03-13T22:44:40.494Z,22.90
2019-03-13T22:47:11.237Z,22.90
2019-03-13T22:49:42.141Z,22.80
2019-03-13T22:52:12.946Z,22.80
2019-03-13T22:54:43.511Z,22.70
2019-03-13T22:57:14.275Z,22.70
2019-03-13T22:59:44.694Z,22.60
2019-03-13T23:02:15.422Z,22.60
2019-03-13T23:04:46.153Z,22.70
2019-03-13T23:07:16.923Z,22.80
2019-03-13T23:09:47.539Z,22.80
2019-03-13T23:12:18.275Z,22.80
2019-03-13T23:14:49.134Z,22.80
2019-03-13T23:17:19.936Z,22.90
2019-03-13T23:19:50.887Z,22.90
2019-03-13T23:22:21.522Z,22.90
2019-03-13T23:24:52.451Z,22.90
2019-03-13T23:27:23.084Z,22.80
2019-03-13T23:29:53.744Z,22.80
2019-03-13T23:32:24.346Z,22.70
2019-03-13T23:34:55.108Z,22.70
2019-03-13T23:37:25.655Z,22.60
2019-03-13T23:39:56.375Z,22.60
2019-03-13T23:42:26.868Z,22.60
2019-03-13T23:44:57.612Z,22.50
2019-03-13T23:47:28.598Z,22.50
2019-03-13T23:49:59.198Z,22.50
2019-03-13T23:52:29.722Z,22.50
2019-03-13T23:55:00.664Z,22.50
2019-03-13T23:57:31.445Z,22.50
